createdAt,value
2023-03-02T00:01:29.033Z,31.50
2023-03-02T00:03:59.140Z,31.80
2023-03-02T00:06:28.484Z,30.40
2023-03-02T00:09:00.648Z,31.30
2023-03-02T00:11:29.313Z,31.40
2023-03-02T00:13:57.233Z,31.00
2023-03-02T00:16:27.263Z,31.40
2023-03-02T00:18:54.938Z,32.40
2023-03-02T00:21:24.597Z,36.30
2023-03-02T00:23:52.993Z,37.70
2023-03-02T00:26:20.912Z,37.50
2023-03-02T00:28:48.672Z,41.00
2023-03-02T00:31:16.552Z,39.20
2023-03-02T00:33:44.242Z,40.40
2023-03-02T00:36:19.051Z,40.50
2023-03-02T00:38:47.065Z,42.10
2023-03-02T00:41:15.756Z,43.10
2023-03-02T00:43:44.117Z,42.90
2023-03-02T00:46:14.156Z,42.10
2023-03-02T00:48:42.511Z,40.10
2023-03-02T00:51:10.770Z,40.30
2023-03-02T00:53:38.786Z,40.60
2023-03-02T00:56:07.678Z,39.90
2023-03-02T00:58:36.843Z,39.50
2023-03-02T01:01:11.434Z,40.70
2023-03-02T01:03:41.775Z,40.80
2023-03-02T01:06:18.219Z,41.80
2023-03-02T01:08:46.106Z,42.70
2023-03-02T01:11:15.807Z,44.10
2023-03-02T01:13:44.480Z,42.80
2023-03-02T01:16:12.666Z,41.00
2023-03-02T01:18:40.722Z,39.20
2023-03-02T01:21:11.967Z,39.10
2023-03-02T01:23:39.655Z,41.00
2023-03-02T01:26:07.953Z,41.70
2023-03-02T01:28:35.760Z,40.80
2023-03-02T01:31:04.663Z,41.10
2023-03-02T01:33:32.864Z,43.20
2023-03-02T01:36:00.605Z,39.30
2023-03-02T01:38:28.926Z,41.10
2023-03-02T01:40:56.755Z,41.30
2023-03-02T01:43:24.434Z,40.40
2023-03-02T01:45:57.826Z,41.70
2023-03-02T01:48:59.137Z,40.10
2023-03-02T01:51:47.835Z,42.60
2023-03-02T01:54:23.155Z,41.50
2023-03-02T01:56:58.210Z,42.70
2023-03-02T01:59:27.997Z,42.60
2023-03-02T02:01:57.731Z,43.20
2023-03-02T02:04:27.404Z,43.00
2023-03-02T02:06:58.431Z,43.30
2023-03-02T02:09:26.774Z,43.00
2023-03-02T02:11:56.056Z,45.10
2023-03-02T02:14:24.301Z,41.40
2023-03-02T02:16:53.222Z,42.40
2023-03-02T02:19:35.659Z,44.30
2023-03-02T02:22:03.570Z,43.20
2023-03-02T02:24:39.153Z,42.70
2023-03-02T02:27:07.350Z,42.10
2023-03-02T02:29:45.583Z,41.50
2023-03-02T02:32:17.198Z,43.40
2023-03-02T02:34:51.966Z,42.10
2023-03-02T02:37:27.681Z,41.30
2023-03-02T02:39:56.012Z,44.80
2023-03-02T02:42:28.558Z,43.30
2023-03-02T02:45:01.261Z,44.10
2023-03-02T02:47:29.369Z,39.80
2023-03-02T02:49:57.137Z,39.10
2023-03-02T02:52:27.738Z,41.40
2023-03-02T02:54:57.328Z,39.40
2023-03-02T02:57:26.889Z,41.60
2023-03-02T02:59:56.354Z,40.60
2023-03-02T03:02:26.575Z,40.50
2023-03-02T03:05:02.943Z,41.50
2023-03-02T03:07:33.062Z,42.30
2023-03-02T03:10:15.516Z,41.10
2023-03-02T03:12:43.561Z,40.50
2023-03-02T03:15:11.801Z,39.90
2023-03-02T03:17:39.497Z,39.30
2023-03-02T03:20:09.243Z,39.30
2023-03-02T03:22:39.408Z,39.90
2023-03-02T03:25:08.575Z,42.70
2023-03-02T03:27:36.774Z,40.40
2023-03-02T03:30:05.757Z,39.40
2023-03-02T03:32:35.518Z,39.60
2023-03-02T03:35:08.538Z,38.80
2023-03-02T03:37:36.312Z,40.60
2023-03-02T03:40:05.983Z,40.80
2023-03-02T03:42:34.031Z,40.40
2023-03-02T03:45:01.741Z,40.80
2023-03-02T03:47:30.149Z,42.50
2023-03-02T03:49:57.900Z,42.00
2023-03-02T03:52:30.893Z,41.70
2023-03-02T03:55:05.559Z,42.20
2023-03-02T03:57:33.558Z,41.50
2023-03-02T04:00:01.564Z,42.00
2023-03-02T04:02:29.501Z,41.40
2023-03-02T04:05:06.194Z,41.30
2023-03-02T04:07:35.114Z,40.30
2023-03-02T04:10:05.124Z,41.70
2023-03-02T04:12:37.942Z,41.40
2023-03-02T04:15:07.976Z,40.60
2023-03-02T04:17:35.696Z,41.60
2023-03-02T04:20:07.821Z,40.60
2023-03-02T04:22:36.081Z,41.40
2023-03-02T04:25:05.223Z,42.30
2023-03-02T04:27:33.171Z,40.10
2023-03-02T04:30:00.895Z,41.90
2023-03-02T04:32:28.845Z,42.10
2023-03-02T04:34:57.127Z,41.60
2023-03-02T04:37:25.269Z,47.10
2023-03-02T04:39:53.478Z,49.80
2023-03-02T04:42:21.791Z,47.70
2023-03-02T04:44:49.813Z,48.20
2023-03-02T04:47:17.509Z,48.10
2023-03-02T04:49:45.369Z,45.10
2023-03-02T04:52:13.643Z,43.40
2023-03-02T04:54:41.595Z,43.90
2023-03-02T04:57:10.006Z,45.80
2023-03-02T04:59:37.690Z,45.60
2023-03-02T05:02:05.772Z,45.70
2023-03-02T05:04:33.549Z,46.80
2023-03-02T05:07:01.377Z,46.90
2023-03-02T05:09:30.929Z,46.70
2023-03-02T05:12:00.312Z,43.90
2023-03-02T05:14:29.446Z,41.90
2023-03-02T05:16:57.132Z,45.30
2023-03-02T05:19:25.302Z,42.80
2023-03-02T05:21:53.232Z,43.70
2023-03-02T05:24:21.623Z,44.20
2023-03-02T05:26:49.336Z,45.20
2023-03-02T05:29:17.016Z,45.30
2023-03-02T05:31:45.646Z,45.30
2023-03-02T05:34:16.252Z,46.80
2023-03-02T05:36:45.638Z,47.90
2023-03-02T05:39:13.560Z,48.30
2023-03-02T05:41:41.806Z,47.60
2023-03-02T05:44:11.995Z,47.40
2023-03-02T05:46:40.125Z,44.90
2023-03-02T05:49:07.894Z,47.80
2023-03-02T05:51:35.908Z,47.10
2023-03-02T05:54:03.713Z,48.10
2023-03-02T05:56:31.822Z,47.60
2023-03-02T05:59:00.128Z,49.30
2023-03-02T06:01:27.792Z,51.00
2023-03-02T06:03:55.932Z,51.20
2023-03-02T06:06:23.539Z,51.10
2023-03-02T06:08:51.183Z,49.50
2023-03-02T06:11:18.851Z,47.30
2023-03-02T06:13:46.588Z,48.30
2023-03-02T06:16:14.230Z,51.20
2023-03-02T06:18:41.904Z,52.60
2023-03-02T06:21:09.903Z,54.00
2023-03-02T06:23:37.634Z,53.00
2023-03-02T06:26:10.654Z,54.40
2023-03-02T06:28:51.430Z,53.10
2023-03-02T06:31:21.604Z,55.20
2023-03-02T06:33:49.487Z,62.30
2023-03-02T06:36:17.620Z,57.50
2023-03-02T06:38:45.556Z,60.70
2023-03-02T06:41:13.160Z,63.80
2023-03-02T06:43:40.791Z,65.20
2023-03-02T06:46:08.570Z,63.30
2023-03-02T06:48:36.391Z,64.20
2023-03-02T06:51:05.117Z,63.20
2023-03-02T06:53:32.803Z,67.10
2023-03-02T06:56:00.392Z,65.30
2023-03-02T06:58:27.987Z,64.10
2023-03-02T07:00:55.960Z,65.30
2023-03-02T07:03:23.642Z,66.60
2023-03-02T07:05:52.217Z,66.00
2023-03-02T07:08:19.867Z,67.00
2023-03-02T07:10:47.537Z,67.60
2023-03-02T07:13:15.232Z,77.40
2023-03-02T07:15:42.809Z,72.70
2023-03-02T07:18:10.439Z,64.40
2023-03-02T07:20:38.258Z,64.30
2023-03-02T07:23:06.320Z,68.10
2023-03-02T07:25:33.992Z,66.60
2023-03-02T07:28:01.587Z,61.50
2023-03-02T07:30:29.261Z,62.50
2023-03-02T07:32:57.566Z,62.30
2023-03-02T07:35:25.562Z,63.80
2023-03-02T07:37:53.433Z,61.90
2023-03-02T07:40:21.034Z,62.30
2023-03-02T07:42:48.666Z,63.60
2023-03-02T07:45:17.046Z,63.60
2023-03-02T07:47:44.721Z,66.40
2023-03-02T07:50:12.394Z,61.60
2023-03-02T07:52:40.067Z,61.00
2023-03-02T07:55:08.474Z,62.20
2023-03-02T07:57:36.514Z,61.90
2023-03-02T08:00:05.170Z,65.30
2023-03-02T08:02:40.656Z,65.70
2023-03-02T08:05:09.558Z,65.00
2023-03-02T08:07:37.442Z,65.10
2023-03-02T08:10:05.384Z,65.10
2023-03-02T08:12:33.096Z,66.30
2023-03-02T08:15:02.545Z,66.10
2023-03-02T08:17:31.322Z,67.40
2023-03-02T08:19:59.027Z,62.90
2023-03-02T08:22:26.815Z,61.40
2023-03-02T08:24:54.528Z,63.40
2023-03-02T08:27:22.324Z,65.40
2023-03-02T08:29:49.962Z,65.10
2023-03-02T08:32:17.633Z,60.60
2023-03-02T08:34:45.354Z,62.80
2023-03-02T08:37:12.975Z,63.60
2023-03-02T08:39:40.969Z,61.40
2023-03-02T08:42:08.583Z,61.00
2023-03-02T08:44:36.267Z,62.80
2023-03-02T08:47:03.978Z,62.50
2023-03-02T08:49:32.003Z,62.10
2023-03-02T08:52:00.735Z,61.10
2023-03-02T08:54:28.470Z,61.70
2023-03-02T08:56:56.215Z,64.30
2023-03-02T08:59:24.005Z,60.70
2023-03-02T09:01:51.714Z,59.90
2023-03-02T09:04:19.429Z,60.60
2023-03-02T09:06:47.510Z,59.20
2023-03-02T09:09:15.567Z,57.70
2023-03-02T09:11:44.828Z,55.20
2023-03-02T09:14:12.998Z,57.80
2023-03-02T09:16:40.865Z,59.80
2023-03-02T09:19:08.576Z,57.30
2023-03-02T09:21:36.323Z,56.30
2023-03-02T09:24:04.270Z,55.40
2023-03-02T09:26:31.925Z,55.50
2023-03-02T09:28:59.612Z,54.10
2023-03-02T09:31:30.041Z,53.20
2023-03-02T09:33:58.034Z,51.90
2023-03-02T09:36:26.769Z,53.60
2023-03-02T09:38:55.141Z,55.30
2023-03-02T09:41:36.082Z,52.90
2023-03-02T09:44:24.468Z,53.10
2023-03-02T09:47:33.444Z,56.20
2023-03-02T09:50:35.640Z,53.60
2023-03-02T09:53:15.596Z,54.60
2023-03-02T09:55:46.094Z,57.30
2023-03-02T09:58:19.491Z,55.90
2023-03-02T10:00:47.821Z,55.70
2023-03-02T10:03:24.084Z,58.60
2023-03-02T10:05:54.249Z,56.80
2023-03-02T10:08:26.766Z,56.40
2023-03-02T10:11:02.138Z,56.30
2023-03-02T10:13:42.226Z,57.90
2023-03-02T10:16:19.620Z,59.50
2023-03-02T10:19:06.789Z,56.10
2023-03-02T10:21:41.402Z,56.10
2023-03-02T10:24:24.434Z,57.60
2023-03-02T10:26:59.353Z,56.40
2023-03-02T10:29:36.477Z,55.00
2023-03-02T10:32:09.984Z,56.60
2023-03-02T10:34:38.439Z,53.70
2023-03-02T10:37:18.775Z,40.90
2023-03-02T10:39:46.424Z,48.00
2023-03-02T10:42:36.149Z,56.90
2023-03-02T10:45:25.632Z,56.30
2023-03-02T10:48:05.590Z,56.00
2023-03-02T10:50:33.571Z,56.30
2023-03-02T10:53:04.822Z,55.80
2023-03-02T10:55:33.379Z,58.50
2023-03-02T10:58:31.234Z,56.50
2023-03-02T11:01:05.884Z,57.20
2023-03-02T11:03:33.934Z,58.40
2023-03-02T11:06:19.546Z,59.10
2023-03-02T11:09:00.324Z,60.30
2023-03-02T11:11:28.520Z,54.60
2023-03-02T11:14:07.122Z,57.70
2023-03-02T11:16:34.994Z,56.60
2023-03-02T11:19:12.220Z,54.30
2023-03-02T11:22:00.537Z,56.30
2023-03-02T11:24:42.643Z,56.70
2023-03-02T11:27:25.247Z,57.50
2023-03-02T11:30:27.036Z,55.10
2023-03-02T11:33:01.591Z,57.00
2023-03-02T11:35:49.112Z,59.20
2023-03-02T11:38:32.918Z,59.40
2023-03-02T11:41:05.539Z,59.00
2023-03-02T11:43:33.213Z,56.50
2023-03-02T11:46:10.824Z,56.50
2023-03-02T11:48:43.773Z,57.00
2023-03-02T11:51:13.777Z,55.60
2023-03-02T11:53:58.695Z,53.80
2023-03-02T11:56:31.384Z,55.00
2023-03-02T11:59:12.155Z,56.10
2023-03-02T12:01:40.474Z,55.00
2023-03-02T12:04:10.683Z,57.70
2023-03-02T12:06:40.916Z,55.90
2023-03-02T12:09:31.376Z,58.30
2023-03-02T12:12:26.782Z,58.40
2023-03-02T12:14:54.429Z,57.90
2023-03-02T12:17:25.043Z,55.60
2023-03-02T12:19:55.535Z,57.80
2023-03-02T12:22:29.074Z,56.80
2023-03-02T12:25:05.462Z,57.00
2023-03-02T12:27:38.994Z,54.10
2023-03-02T12:30:16.173Z,56.80
2023-03-02T12:32:46.573Z,57.60
2023-03-02T12:35:18.296Z,57.30
2023-03-02T12:37:57.712Z,58.10
2023-03-02T12:40:37.380Z,57.00
2023-03-02T12:43:21.172Z,59.00
2023-03-02T12:46:33.092Z,58.60
2023-03-02T12:49:13.599Z,57.70
2023-03-02T12:51:54.094Z,59.20
2023-03-02T12:54:32.909Z,60.60
2023-03-02T12:57:17.663Z,59.80
2023-03-02T12:59:53.618Z,57.20
2023-03-02T13:02:24.396Z,55.10
2023-03-02T13:04:57.332Z,52.20
2023-03-02T13:07:47.263Z,51.90
2023-03-02T13:10:37.903Z,51.30
2023-03-02T13:13:28.032Z,52.10
2023-03-02T13:15:58.677Z,51.00
2023-03-02T13:18:31.985Z,49.80
2023-03-02T13:21:01.508Z,50.90
2023-03-02T13:23:30.891Z,52.20
2023-03-02T13:26:04.089Z,52.00
2023-03-02T13:28:38.735Z,52.20
2023-03-02T13:31:22.414Z,51.50
2023-03-02T13:33:56.331Z,51.30
2023-03-02T13:36:27.119Z,54.60
2023-03-02T13:38:59.610Z,52.30
2023-03-02T13:41:32.348Z,53.20
2023-03-02T13:44:12.444Z,53.40
2023-03-02T13:46:42.203Z,53.30
2023-03-02T13:49:11.549Z,54.40
2023-03-02T13:51:44.481Z,52.20
2023-03-02T13:54:21.123Z,54.60
2023-03-02T13:56:51.106Z,51.20
2023-03-02T13:59:20.692Z,53.30
2023-03-02T14:01:48.727Z,52.80
2023-03-02T14:04:21.532Z,53.30
2023-03-02T14:06:53.827Z,53.80
2023-03-02T14:09:21.908Z,52.60
2023-03-02T14:11:55.314Z,54.30
2023-03-02T14:14:25.224Z,54.10
2023-03-02T14:16:52.916Z,53.90
2023-03-02T14:19:21.489Z,51.90
2023-03-02T14:21:49.185Z,54.10
2023-03-02T14:24:16.791Z,55.40
2023-03-02T14:26:47.309Z,55.20
2023-03-02T14:29:22.116Z,53.90
2023-03-02T14:31:49.778Z,56.10
2023-03-02T14:34:18.240Z,54.50
2023-03-02T14:36:48.649Z,55.70
2023-03-02T14:39:21.862Z,55.00
2023-03-02T14:41:53.879Z,54.10
2023-03-02T14:44:22.372Z,60.10
2023-03-02T14:46:50.253Z,57.60
2023-03-02T14:49:17.923Z,57.30
2023-03-02T14:51:58.362Z,58.70
2023-03-02T14:54:26.822Z,60.20
2023-03-02T14:56:54.551Z,61.80
2023-03-02T14:59:22.146Z,61.20
2023-03-02T15:01:49.981Z,61.40
2023-03-02T15:04:17.724Z,60.40
2023-03-02T15:06:45.965Z,61.80
2023-03-02T15:09:13.624Z,61.60
2023-03-02T15:11:41.356Z,61.30
2023-03-02T15:14:09.095Z,61.60
2023-03-02T15:16:36.724Z,61.40
2023-03-02T15:19:04.384Z,61.10
2023-03-02T15:21:32.984Z,62.10
2023-03-02T15:24:00.826Z,61.30
2023-03-02T15:26:28.544Z,60.20
2023-03-02T15:28:56.192Z,62.40
2023-03-02T15:31:23.860Z,60.10
2023-03-02T15:33:52.367Z,64.50
2023-03-02T15:36:20.829Z,60.20
2023-03-02T15:38:50.714Z,59.20
2023-03-02T15:41:19.305Z,59.70
2023-03-02T15:43:51.503Z,57.60
2023-03-02T15:46:20.542Z,57.60
2023-03-02T15:48:48.524Z,58.50
2023-03-02T15:51:16.123Z,58.80
2023-03-02T15:53:44.120Z,56.80
2023-03-02T15:56:15.953Z,59.30
2023-03-02T15:58:47.928Z,59.30
2023-03-02T16:01:16.400Z,58.20
2023-03-02T16:03:45.605Z,58.90
2023-03-02T16:06:15.698Z,57.30
2023-03-02T16:08:43.525Z,59.60
2023-03-02T16:11:11.330Z,60.10
2023-03-02T16:13:39.039Z,60.80
2023-03-02T16:16:06.924Z,62.50
2023-03-02T16:18:34.742Z,60.00
2023-03-02T16:21:03.557Z,61.20
2023-03-02T16:23:31.372Z,61.00
2023-03-02T16:26:07.454Z,60.20
2023-03-02T16:28:35.242Z,63.10
2023-03-02T16:31:07.673Z,61.60
2023-03-02T16:33:35.580Z,63.40
2023-03-02T16:36:03.713Z,61.90
2023-03-02T16:38:31.369Z,62.60
2023-03-02T16:40:59.359Z,59.70
2023-03-02T16:43:27.080Z,60.80
2023-03-02T16:45:55.049Z,56.90
2023-03-02T16:48:22.686Z,55.20
2023-03-02T16:50:58.186Z,57.50
2023-03-02T16:53:25.886Z,56.20
2023-03-02T16:55:53.489Z,54.80
2023-03-02T16:58:21.123Z,53.10
2023-03-02T17:00:48.995Z,52.50
2023-03-02T17:03:17.154Z,53.00
2023-03-02T17:05:44.772Z,55.00
2023-03-02T17:08:13.913Z,54.90
2023-03-02T17:10:42.335Z,54.50
2023-03-02T17:13:12.087Z,54.70
2023-03-02T17:15:39.770Z,56.00
2023-03-02T17:18:07.461Z,58.00
2023-03-02T17:20:35.099Z,58.10
2023-03-02T17:23:03.457Z,56.90
2023-03-02T17:25:31.088Z,55.70
2023-03-02T17:27:58.761Z,56.20
2023-03-02T17:30:26.775Z,56.30
2023-03-02T17:32:54.528Z,57.70
2023-03-02T17:35:22.388Z,58.20
2023-03-02T17:37:50.050Z,59.00
2023-03-02T17:40:18.119Z,60.10
2023-03-02T17:42:45.810Z,60.40
2023-03-02T17:45:21.509Z,60.50
2023-03-02T17:47:50.287Z,60.50
2023-03-02T17:50:17.967Z,58.60
2023-03-02T17:52:45.632Z,58.30
2023-03-02T17:55:13.858Z,57.90
2023-03-02T17:57:41.549Z,55.90
2023-03-02T18:00:13.859Z,55.90
2023-03-02T18:02:41.620Z,59.30
2023-03-02T18:05:10.134Z,57.40
2023-03-02T18:07:37.850Z,57.60
2023-03-02T18:10:06.601Z,57.70
2023-03-02T18:12:34.860Z,57.80
2023-03-02T18:15:02.680Z,58.70
2023-03-02T18:17:30.305Z,57.90
2023-03-02T18:19:57.908Z,56.70
2023-03-02T18:22:25.554Z,44.30
2023-03-02T18:24:53.210Z,41.70
2023-03-02T18:27:23.254Z,41.00
2023-03-02T18:29:50.928Z,41.40
2023-03-02T18:32:18.638Z,54.70
2023-03-02T18:34:46.386Z,61.70
2023-03-02T18:37:14.042Z,56.60
2023-03-02T18:39:41.668Z,61.10
2023-03-02T18:42:11.578Z,62.80
2023-03-02T18:44:40.313Z,58.40
2023-03-02T18:47:09.859Z,55.80
2023-03-02T18:49:38.257Z,56.00
2023-03-02T18:52:06.891Z,56.60
2023-03-02T18:54:34.509Z,56.50
2023-03-02T18:57:02.347Z,53.80
2023-03-02T18:59:30.246Z,56.80
2023-03-02T19:01:58.053Z,53.90
2023-03-02T19:04:26.530Z,53.60
2023-03-02T19:06:56.054Z,55.20
2023-03-02T19:09:23.850Z,60.80
2023-03-02T19:11:51.461Z,63.00
2023-03-02T19:14:19.114Z,57.10
2023-03-02T19:16:46.860Z,58.80
2023-03-02T19:19:14.559Z,58.40
2023-03-02T19:21:42.237Z,61.10
2023-03-02T19:24:10.006Z,59.40
2023-03-02T19:26:37.609Z,57.50
2023-03-02T19:29:05.342Z,75.90
2023-03-02T19:31:33.160Z,73.80
2023-03-02T19:34:00.822Z,70.70
2023-03-02T19:36:28.440Z,68.20
2023-03-02T19:38:56.147Z,63.30
2023-03-02T19:41:23.854Z,64.70
2023-03-02T19:43:51.557Z,65.10
2023-03-02T19:46:19.239Z,62.70
2023-03-02T19:48:47.132Z,62.80
2023-03-02T19:51:15.893Z,59.80
2023-03-02T19:53:43.770Z,58.10
2023-03-02T19:56:14.292Z,67.40
2023-03-02T19:58:53.488Z,64.30
2023-03-02T20:01:22.070Z,64.70
2023-03-02T20:03:51.846Z,62.80
2023-03-02T20:06:21.312Z,66.60
2023-03-02T20:08:49.649Z,70.70
2023-03-02T20:11:17.774Z,79.80
2023-03-02T20:13:46.244Z,76.40
2023-03-02T20:16:14.355Z,79.20
2023-03-02T20:18:42.262Z,62.90
2023-03-02T20:21:09.903Z,58.10
2023-03-02T20:23:37.719Z,59.00
2023-03-02T20:26:06.046Z,60.70
2023-03-02T20:28:33.872Z,61.70
2023-03-02T20:31:08.809Z,62.50
2023-03-02T20:33:42.472Z,57.00
2023-03-02T20:36:11.605Z,58.70
2023-03-02T20:38:43.841Z,59.90
2023-03-02T20:41:12.983Z,58.90
2023-03-02T20:43:42.202Z,60.50
2023-03-02T20:46:13.318Z,60.80
2023-03-02T20:48:40.952Z,60.20
2023-03-02T20:51:08.800Z,57.30
2023-03-02T20:53:36.744Z,58.20
2023-03-02T20:56:04.731Z,58.30
2023-03-02T20:58:32.535Z,59.40
2023-03-02T21:01:00.550Z,59.30
2023-03-02T21:03:28.228Z,66.00
2023-03-02T21:05:55.870Z,65.90
2023-03-02T21:08:23.472Z,102.40
2023-03-02T21:10:51.243Z,96.20
2023-03-02T21:13:19.595Z,77.00
2023-03-02T21:15:47.444Z,66.60
2023-03-02T21:18:15.048Z,79.30
2023-03-02T21:20:42.680Z,66.00
2023-03-02T21:23:11.072Z,58.10
2023-03-02T21:25:40.560Z,71.00
2023-03-02T21:28:09.812Z,72.50
2023-03-02T21:30:37.566Z,64.70
2023-03-02T21:33:05.320Z,61.80
2023-03-02T21:35:33.022Z,67.50
2023-03-02T21:38:04.188Z,77.80
2023-03-02T21:40:40.667Z,91.30
2023-03-02T21:43:08.847Z,83.50
2023-03-02T21:45:36.992Z,75.90
2023-03-02T21:48:05.722Z,73.00
2023-03-02T21:50:36.043Z,68.30
2023-03-02T21:53:04.037Z,65.90
2023-03-02T21:55:32.240Z,65.00
2023-03-02T21:58:00.679Z,65.40
2023-03-02T22:00:32.905Z,66.20
2023-03-02T22:03:00.698Z,66.20
2023-03-02T22:05:28.639Z,66.90
2023-03-02T22:07:56.594Z,68.80
2023-03-02T22:10:32.564Z,74.50
2023-03-02T22:13:22.315Z,80.20
2023-03-02T22:15:56.215Z,76.20
2023-03-02T22:18:26.964Z,77.70
2023-03-02T22:20:54.579Z,73.70
2023-03-02T22:23:25.092Z,72.60
2023-03-02T22:25:55.058Z,72.10
2023-03-02T22:28:25.539Z,68.50
2023-03-02T22:30:57.654Z,70.80
2023-03-02T22:33:28.002Z,69.20
2023-03-02T22:36:02.442Z,68.60
2023-03-02T22:38:31.007Z,67.70
2023-03-02T22:40:58.608Z,71.10
2023-03-02T22:43:31.670Z,73.90
2023-03-02T22:46:21.723Z,76.00
2023-03-02T22:48:51.018Z,70.60
2023-03-02T22:51:21.207Z,68.20
2023-03-02T22:53:50.702Z,68.20
2023-03-02T22:56:32.185Z,67.70
2023-03-02T22:59:08.454Z,67.30
2023-03-02T23:01:42.454Z,64.10
2023-03-02T23:04:19.456Z,60.10
2023-03-02T23:06:55.112Z,63.60
2023-03-02T23:09:26.413Z,68.40
2023-03-02T23:11:58.035Z,66.60
2023-03-02T23:14:39.541Z,67.40
2023-03-02T23:17:25.615Z,72.50
2023-03-02T23:19:53.291Z,69.30
2023-03-02T23:22:20.891Z,65.30
2023-03-02T23:24:48.509Z,63.40
2023-03-02T23:27:16.097Z,59.20
2023-03-02T23:29:43.731Z,57.30
2023-03-02T23:32:11.467Z,60.60
2023-03-02T23:34:39.499Z,62.90
2023-03-02T23:37:07.141Z,68.30
2023-03-02T23:39:34.775Z,66.60
2023-03-02T23:42:02.466Z,63.20
2023-03-02T23:44:30.160Z,65.80
2023-03-02T23:46:57.799Z,61.00
2023-03-02T23:49:25.434Z,59.70
2023-03-02T23:51:53.056Z,56.00
2023-03-02T23:54:20.729Z,53.70
2023-03-02T23:56:48.303Z,52.40
2023-03-02T23:59:15.890Z,52.10
